sensor_id;sensor_type;location;lat;lon;timestamp;temperature;humidity
23137;DHT22;11737;50.558;7.258;2022-08-21T00:00:13;16.40;98.10
23137;DHT22;11737;50.558;7.258;2022-08-21T00:02:54;16.40;98.40
23137;DHT22;11737;50.558;7.258;2022-08-21T00:05:18;16.40;98.50
23137;DHT22;11737;50.558;7.258;2022-08-21T00:07:46;16.40;98.80
23137;DHT22;11737;50.558;7.258;2022-08-21T00:10:15;16.40;99.10
23137;DHT22;11737;50.558;7.258;2022-08-21T00:12:43;16.30;99.40
23137;DHT22;11737;50.558;7.258;2022-08-21T00:15:15;16.30;99.70
23137;DHT22;11737;50.558;7.258;2022-08-21T00:17:42;16.20;99.40
23137;DHT22;11737;50.558;7.258;2022-08-21T00:20:12;16.20;99.90
23137;DHT22;11737;50.558;7.258;2022-08-21T00:25:29;16.00;99.90
23137;DHT22;11737;50.558;7.258;2022-08-21T00:27:57;16.00;99.90
23137;DHT22;11737;50.558;7.258;2022-08-21T00:30:26;16.00;99.90
23137;DHT22;11737;50.558;7.258;2022-08-21T00:32:55;16.00;99.90
23137;DHT22;11737;50.558;7.258;2022-08-21T00:35:26;15.90;99.90
23137;DHT22;11737;50.558;7.258;2022-08-21T00:37:54;15.90;99.90
23137;DHT22;11737;50.558;7.258;2022-08-21T00:40:26;16.00;99.90
23137;DHT22;11737;50.558;7.258;2022-08-21T00:42:52;15.90;99.90
23137;DHT22;11737;50.558;7.258;2022-08-21T00:45:21;15.90;99.90
23137;DHT22;11737;50.558;7.258;2022-08-21T00:47:51;15.80;99.90
23137;DHT22;11737;50.558;7.258;2022-08-21T00:50:21;15.80;99.90
23137;DHT22;11737;50.558;7.258;2022-08-21T00:52:51;15.70;99.90
23137;DHT22;11737;50.558;7.258;2022-08-21T00:55:20;15.70;99.90
23137;DHT22;11737;50.558;7.258;2022-08-21T00:57:52;15.70;99.90
23137;DHT22;11737;50.558;7.258;2022-08-21T01:00:24;15.70;99.90
23137;DHT22;11737;50.558;7.258;2022-08-21T01:03:10;15.70;99.90
23137;DHT22;11737;50.558;7.258;2022-08-21T01:05:39;15.70;99.90
23137;DHT22;11737;50.558;7.258;2022-08-21T01:08:08;15.60;99.90
23137;DHT22;11737;50.558;7.258;2022-08-21T01:10:37;15.60;99.90
23137;DHT22;11737;50.558;7.258;2022-08-21T01:13:07;15.60;99.90
23137;DHT22;11737;50.558;7.258;2022-08-21T01:15:39;15.50;99.90
23137;DHT22;11737;50.558;7.258;2022-08-21T01:18:09;15.50;99.90
23137;DHT22;11737;50.558;7.258;2022-08-21T01:20:40;15.50;99.90
23137;DHT22;11737;50.558;7.258;2022-08-21T01:23:07;15.50;99.90
23137;DHT22;11737;50.558;7.258;2022-08-21T01:25:35;15.50;99.90
23137;DHT22;11737;50.558;7.258;2022-08-21T01:28:06;15.40;99.90
23137;DHT22;11737;50.558;7.258;2022-08-21T01:30:35;15.40;99.90
23137;DHT22;11737;50.558;7.258;2022-08-21T01:33:04;15.30;99.90
23137;DHT22;11737;50.558;7.258;2022-08-21T01:35:32;15.30;99.90
23137;DHT22;11737;50.558;7.258;2022-08-21T01:37:59;15.30;99.90
23137;DHT22;11737;50.558;7.258;2022-08-21T01:40:27;15.30;99.90
23137;DHT22;11737;50.558;7.258;2022-08-21T01:42:54;15.40;99.90
23137;DHT22;11737;50.558;7.258;2022-08-21T01:45:22;15.40;99.90
23137;DHT22;11737;50.558;7.258;2022-08-21T01:47:50;15.50;99.90
23137;DHT22;11737;50.558;7.258;2022-08-21T01:50:19;15.50;99.90
23137;DHT22;11737;50.558;7.258;2022-08-21T01:52:48;15.50;99.90
23137;DHT22;11737;50.558;7.258;2022-08-21T01:55:17;15.40;99.90
23137;DHT22;11737;50.558;7.258;2022-08-21T01:57:45;15.40;99.90
23137;DHT22;11737;50.558;7.258;2022-08-21T02:00:14;15.40;99.90
23137;DHT22;11737;50.558;7.258;2022-08-21T02:02:42;15.40;99.90
23137;DHT22;11737;50.558;7.258;2022-08-21T02:05:12;15.30;99.90
23137;DHT22;11737;50.558;7.258;2022-08-21T02:07:43;15.20;99.90
23137;DHT22;11737;50.558;7.258;2022-08-21T02:10:13;15.10;99.90
23137;DHT22;11737;50.558;7.258;2022-08-21T02:12:40;15.00;99.90
23137;DHT22;11737;50.558;7.258;2022-08-21T02:15:09;15.00;99.90
23137;DHT22;11737;50.558;7.258;2022-08-21T02:20:16;14.90;99.90
23137;DHT22;11737;50.558;7.258;2022-08-21T02:22:43;14.80;99.90
23137;DHT22;11737;50.558;7.258;2022-08-21T02:25:11;14.80;99.90
23137;DHT22;11737;50.558;7.258;2022-08-21T02:27:40;14.90;99.90
23137;DHT22;11737;50.558;7.258;2022-08-21T02:30:15;14.80;99.90
23137;DHT22;11737;50.558;7.258;2022-08-21T02:32:39;14.80;99.90
23137;DHT22;11737;50.558;7.258;2022-08-21T02:35:07;14.80;99.90
23137;DHT22;11737;50.558;7.258;2022-08-21T02:37:48;14.70;99.90
23137;DHT22;11737;50.558;7.258;2022-08-21T02:40:13;14.70;99.90
23137;DHT22;11737;50.558;7.258;2022-08-21T02:42:41;14.60;99.90
23137;DHT22;11737;50.558;7.258;2022-08-21T02:45:11;14.60;99.90
23137;DHT22;11737;50.558;7.258;2022-08-21T02:47:39;14.60;99.90
23137;DHT22;11737;50.558;7.258;2022-08-21T02:50:07;14.60;99.90
23137;DHT22;11737;50.558;7.258;2022-08-21T02:52:35;14.60;99.90
23137;DHT22;11737;50.558;7.258;2022-08-21T02:55:03;14.60;99.90
23137;DHT22;11737;50.558;7.258;2022-08-21T02:57:31;14.60;99.90
23137;DHT22;11737;50.558;7.258;2022-08-21T02:59:59;14.60;99.90
23137;DHT22;11737;50.558;7.258;2022-08-21T03:02:26;14.50;99.90
23137;DHT22;11737;50.558;7.258;2022-08-21T03:04:54;14.50;99.90
23137;DHT22;11737;50.558;7.258;2022-08-21T03:07:22;14.50;99.90
23137;DHT22;11737;50.558;7.258;2022-08-21T03:09:49;14.50;99.90
23137;DHT22;11737;50.558;7.258;2022-08-21T03:12:17;14.40;99.90
23137;DHT22;11737;50.558;7.258;2022-08-21T03:14:44;14.40;99.90
23137;DHT22;11737;50.558;7.258;2022-08-21T03:17:12;14.40;99.90
23137;DHT22;11737;50.558;7.258;2022-08-21T03:19:39;14.40;99.90
23137;DHT22;11737;50.558;7.258;2022-08-21T03:22:07;14.40;99.90
23137;DHT22;11737;50.558;7.258;2022-08-21T03:24:34;14.40;99.90
23137;DHT22;11737;50.558;7.258;2022-08-21T03:27:02;14.40;99.90
23137;DHT22;11737;50.558;7.258;2022-08-21T03:29:30;14.40;99.90
23137;DHT22;11737;50.558;7.258;2022-08-21T03:31:57;14.30;99.90
23137;DHT22;11737;50.558;7.258;2022-08-21T03:34:25;14.30;99.90
23137;DHT22;11737;50.558;7.258;2022-08-21T03:36:52;14.30;99.90
23137;DHT22;11737;50.558;7.258;2022-08-21T03:39:20;14.30;99.90
23137;DHT22;11737;50.558;7.258;2022-08-21T03:41:47;14.30;99.90
23137;DHT22;11737;50.558;7.258;2022-08-21T03:44:15;14.20;99.90
23137;DHT22;11737;50.558;7.258;2022-08-21T03:46:42;14.20;99.90
23137;DHT22;11737;50.558;7.258;2022-08-21T03:49:10;14.20;99.90
23137;DHT22;11737;50.558;7.258;2022-08-21T03:51:38;14.20;99.90
23137;DHT22;11737;50.558;7.258;2022-08-21T03:54:06;14.20;99.90
23137;DHT22;11737;50.558;7.258;2022-08-21T03:56:33;14.20;99.90
23137;DHT22;11737;50.558;7.258;2022-08-21T03:59:01;14.20;99.90
23137;DHT22;11737;50.558;7.258;2022-08-21T04:01:29;14.10;99.90
23137;DHT22;11737;50.558;7.258;2022-08-21T04:03:57;14.10;99.90
23137;DHT22;11737;50.558;7.258;2022-08-21T04:06:25;14.10;99.90
23137;DHT22;11737;50.558;7.258;2022-08-21T04:08:53;14.00;99.90
23137;DHT22;11737;50.558;7.258;2022-08-21T04:11:21;14.00;99.90
23137;DHT22;11737;50.558;7.258;2022-08-21T04:13:48;13.90;99.90
23137;DHT22;11737;50.558;7.258;2022-08-21T04:16:16;13.90;99.90
23137;DHT22;11737;50.558;7.258;2022-08-21T04:18:44;13.90;99.90
23137;DHT22;11737;50.558;7.258;2022-08-21T04:21:12;13.90;99.90
23137;DHT22;11737;50.558;7.258;2022-08-21T04:23:39;13.90;99.90
23137;DHT22;11737;50.558;7.258;2022-08-21T04:26:07;13.90;99.90
23137;DHT22;11737;50.558;7.258;2022-08-21T04:28:34;13.80;99.90
23137;DHT22;11737;50.558;7.258;2022-08-21T04:31:02;13.80;99.90
23137;DHT22;11737;50.558;7.258;2022-08-21T04:33:29;13.80;99.90
23137;DHT22;11737;50.558;7.258;2022-08-21T04:35:57;13.80;99.90
23137;DHT22;11737;50.558;7.258;2022-08-21T04:38:24;14.00;99.90
23137;DHT22;11737;50.558;7.258;2022-08-21T04:40:53;14.00;99.90
23137;DHT22;11737;50.558;7.258;2022-08-21T04:43:20;14.00;99.90
23137;DHT22;11737;50.558;7.258;2022-08-21T04:45:50;14.00;99.90
23137;DHT22;11737;50.558;7.258;2022-08-21T04:48:20;14.10;99.90
23137;DHT22;11737;50.558;7.258;2022-08-21T04:51:11;14.20;99.90
23137;DHT22;11737;50.558;7.258;2022-08-21T04:53:44;14.10;99.90
23137;DHT22;11737;50.558;7.258;2022-08-21T04:56:15;14.10;99.90
23137;DHT22;11737;50.558;7.258;2022-08-21T04:58:42;14.20;99.90
23137;DHT22;11737;50.558;7.258;2022-08-21T05:01:13;14.20;99.90
23137;DHT22;11737;50.558;7.258;2022-08-21T05:03:41;14.20;99.90
23137;DHT22;11737;50.558;7.258;2022-08-21T05:06:11;14.20;99.90
23137;DHT22;11737;50.558;7.258;2022-08-21T05:08:40;14.30;99.90
23137;DHT22;11737;50.558;7.258;2022-08-21T05:11:10;14.30;99.90
23137;DHT22;11737;50.558;7.258;2022-08-21T05:13:37;14.40;99.90
23137;DHT22;11737;50.558;7.258;2022-08-21T05:16:07;14.30;99.90
23137;DHT22;11737;50.558;7.258;2022-08-21T05:18:35;14.40;99.90
23137;DHT22;11737;50.558;7.258;2022-08-21T05:21:03;14.50;99.90
23137;DHT22;11737;50.558;7.258;2022-08-21T05:23:31;14.60;99.90
23137;DHT22;11737;50.558;7.258;2022-08-21T05:25:59;14.70;99.90
23137;DHT22;11737;50.558;7.258;2022-08-21T05:28:27;14.80;99.90
23137;DHT22;11737;50.558;7.258;2022-08-21T05:30:55;14.90;99.90
23137;DHT22;11737;50.558;7.258;2022-08-21T05:33:23;15.10;99.90
23137;DHT22;11737;50.558;7.258;2022-08-21T05:35:54;15.20;99.90
23137;DHT22;11737;50.558;7.258;2022-08-21T05:38:24;15.40;99.90
23137;DHT22;11737;50.558;7.258;2022-08-21T05:40:53;15.40;99.90
23137;DHT22;11737;50.558;7.258;2022-08-21T05:43:21;15.60;99.90
23137;DHT22;11737;50.558;7.258;2022-08-21T05:45:48;15.60;99.90
23137;DHT22;11737;50.558;7.258;2022-08-21T05:48:19;15.70;99.90
23137;DHT22;11737;50.558;7.258;2022-08-21T05:50:48;15.90;99.90
23137;DHT22;11737;50.558;7.258;2022-08-21T05:53:17;16.00;99.90
23137;DHT22;11737;50.558;7.258;2022-08-21T05:55:47;16.10;99.90
23137;DHT22;11737;50.558;7.258;2022-08-21T05:58:21;16.20;99.90
23137;DHT22;11737;50.558;7.258;2022-08-21T06:00:46;16.30;99.90
23137;DHT22;11737;50.558;7.258;2022-08-21T06:03:24;16.40;99.90
23137;DHT22;11737;50.558;7.258;2022-08-21T06:05:47;16.50;99.90
23137;DHT22;11737;50.558;7.258;2022-08-21T06:08:16;16.70;99.90
23137;DHT22;11737;50.558;7.258;2022-08-21T06:10:44;16.80;99.90
23137;DHT22;11737;50.558;7.258;2022-08-21T06:13:13;16.90;99.90
23137;DHT22;11737;50.558;7.258;2022-08-21T06:15:41;17.00;99.90
23137;DHT22;11737;50.558;7.258;2022-08-21T06:18:09;17.10;99.90
23137;DHT22;11737;50.558;7.258;2022-08-21T06:20:37;17.20;99.90
23137;DHT22;11737;50.558;7.258;2022-08-21T06:23:05;17.30;99.90
23137;DHT22;11737;50.558;7.258;2022-08-21T06:25:33;17.50;99.90
23137;DHT22;11737;50.558;7.258;2022-08-21T06:28:03;17.60;99.90
23137;DHT22;11737;50.558;7.258;2022-08-21T06:30:32;17.70;99.90
23137;DHT22;11737;50.558;7.258;2022-08-21T06:33:00;17.70;99.90
23137;DHT22;11737;50.558;7.258;2022-08-21T06:35:29;17.80;99.90
23137;DHT22;11737;50.558;7.258;2022-08-21T06:37:57;18.00;99.90
23137;DHT22;11737;50.558;7.258;2022-08-21T06:40:27;18.10;99.90
23137;DHT22;11737;50.558;7.258;2022-08-21T06:42:54;18.20;99.90
23137;DHT22;11737;50.558;7.258;2022-08-21T06:45:22;18.40;99.90
23137;DHT22;11737;50.558;7.258;2022-08-21T06:47:49;18.50;99.90
23137;DHT22;11737;50.558;7.258;2022-08-21T06:50:17;18.60;99.90
23137;DHT22;11737;50.558;7.258;2022-08-21T06:52:45;18.70;99.90
23137;DHT22;11737;50.558;7.258;2022-08-21T06:55:13;18.80;99.90
23137;DHT22;11737;50.558;7.258;2022-08-21T06:57:40;18.90;99.90
23137;DHT22;11737;50.558;7.258;2022-08-21T07:00:10;19.10;99.90
23137;DHT22;11737;50.558;7.258;2022-08-21T07:02:38;19.30;99.90
23137;DHT22;11737;50.558;7.258;2022-08-21T07:05:05;19.40;99.90
23137;DHT22;11737;50.558;7.258;2022-08-21T07:07:33;19.50;99.90
23137;DHT22;11737;50.558;7.258;2022-08-21T07:10:00;19.70;99.90
23137;DHT22;11737;50.558;7.258;2022-08-21T07:12:28;19.80;99.90
23137;DHT22;11737;50.558;7.258;2022-08-21T07:14:56;20.00;99.90
23137;DHT22;11737;50.558;7.258;2022-08-21T07:17:24;20.10;99.90
23137;DHT22;11737;50.558;7.258;2022-08-21T07:19:52;20.20;99.90
23137;DHT22;11737;50.558;7.258;2022-08-21T07:22:20;20.40;99.90
23137;DHT22;11737;50.558;7.258;2022-08-21T07:24:48;20.50;99.90
23137;DHT22;11737;50.558;7.258;2022-08-21T07:27:15;20.60;99.90
23137;DHT22;11737;50.558;7.258;2022-08-21T07:29:43;20.70;99.90
23137;DHT22;11737;50.558;7.258;2022-08-21T07:32:11;20.90;99.80
23137;DHT22;11737;50.558;7.258;2022-08-21T07:34:39;21.00;99.60
23137;DHT22;11737;50.558;7.258;2022-08-21T07:37:06;21.10;99.60
23137;DHT22;11737;50.558;7.258;2022-08-21T07:39:34;21.30;98.50
23137;DHT22;11737;50.558;7.258;2022-08-21T07:42:03;21.40;98.10
23137;DHT22;11737;50.558;7.258;2022-08-21T07:44:30;21.50;97.80
23137;DHT22;11737;50.558;7.258;2022-08-21T07:46:58;21.60;97.70
23137;DHT22;11737;50.558;7.258;2022-08-21T07:49:25;21.60;97.70
23137;DHT22;11737;50.558;7.258;2022-08-21T07:51:53;21.80;97.10
23137;DHT22;11737;50.558;7.258;2022-08-21T07:54:21;21.90;96.50
23137;DHT22;11737;50.558;7.258;2022-08-21T07:56:48;22.10;96.60
23137;DHT22;11737;50.558;7.258;2022-08-21T07:59:16;22.10;96.80
23137;DHT22;11737;50.558;7.258;2022-08-21T08:01:43;22.10;96.70
23137;DHT22;11737;50.558;7.258;2022-08-21T08:04:11;22.10;96.90
23137;DHT22;11737;50.558;7.258;2022-08-21T08:06:39;22.20;97.10
23137;DHT22;11737;50.558;7.258;2022-08-21T08:09:06;22.30;96.40
23137;DHT22;11737;50.558;7.258;2022-08-21T08:11:34;22.50;95.60
23137;DHT22;11737;50.558;7.258;2022-08-21T08:14:02;22.60;95.70
23137;DHT22;11737;50.558;7.258;2022-08-21T08:16:30;22.70;95.40
23137;DHT22;11737;50.558;7.258;2022-08-21T08:18:57;22.80;95.60
23137;DHT22;11737;50.558;7.258;2022-08-21T08:21:25;22.80;95.50
23137;DHT22;11737;50.558;7.258;2022-08-21T08:23:53;22.90;95.90
23137;DHT22;11737;50.558;7.258;2022-08-21T08:26:20;23.00;95.40
23137;DHT22;11737;50.558;7.258;2022-08-21T08:28:48;23.10;95.40
23137;DHT22;11737;50.558;7.258;2022-08-21T08:31:16;23.30;95.20
23137;DHT22;11737;50.558;7.258;2022-08-21T08:33:43;23.40;95.40
23137;DHT22;11737;50.558;7.258;2022-08-21T08:36:15;23.50;95.30
23137;DHT22;11737;50.558;7.258;2022-08-21T08:38:44;23.60;94.50
23137;DHT22;11737;50.558;7.258;2022-08-21T08:43:50;23.90;93.50
23137;DHT22;11737;50.558;7.258;2022-08-21T08:46:23;24.10;93.00
23137;DHT22;11737;50.558;7.258;2022-08-21T08:49:08;24.10;93.30
23137;DHT22;11737;50.558;7.258;2022-08-21T08:51:54;24.10;93.70
23137;DHT22;11737;50.558;7.258;2022-08-21T08:54:21;24.30;92.40
23137;DHT22;11737;50.558;7.258;2022-08-21T08:56:50;24.40;91.90
23137;DHT22;11737;50.558;7.258;2022-08-21T08:59:22;24.50;92.60
23137;DHT22;11737;50.558;7.258;2022-08-21T09:01:49;24.50;92.50
23137;DHT22;11737;50.558;7.258;2022-08-21T09:04:23;24.60;92.10
23137;DHT22;11737;50.558;7.258;2022-08-21T09:15:09;24.90;90.80
23137;DHT22;11737;50.558;7.258;2022-08-21T09:17:44;25.00;90.80
23137;DHT22;11737;50.558;7.258;2022-08-21T09:20:32;25.10;88.80
23137;DHT22;11737;50.558;7.258;2022-08-21T09:26:02;25.30;90.10
23137;DHT22;11737;50.558;7.258;2022-08-21T09:28:13;25.40;89.40
23137;DHT22;11737;50.558;7.258;2022-08-21T09:30:41;25.50;88.70
23137;DHT22;11737;50.558;7.258;2022-08-21T09:33:11;25.60;88.20
23137;DHT22;11737;50.558;7.258;2022-08-21T09:38:39;25.80;86.50
23137;DHT22;11737;50.558;7.258;2022-08-21T09:41:09;25.90;85.60
23137;DHT22;11737;50.558;7.258;2022-08-21T09:43:38;26.10;86.20
23137;DHT22;11737;50.558;7.258;2022-08-21T09:46:12;26.10;86.00
23137;DHT22;11737;50.558;7.258;2022-08-21T09:48:45;26.20;85.00
23137;DHT22;11737;50.558;7.258;2022-08-21T09:51:20;26.30;83.50
23137;DHT22;11737;50.558;7.258;2022-08-21T09:53:51;26.30;77.20
23137;DHT22;11737;50.558;7.258;2022-08-21T09:56:26;26.30;81.10
23137;DHT22;11737;50.558;7.258;2022-08-21T09:59:23;26.30;82.30
23137;DHT22;11737;50.558;7.258;2022-08-21T10:01:50;26.40;82.40
23137;DHT22;11737;50.558;7.258;2022-08-21T10:04:28;26.50;76.50
23137;DHT22;11737;50.558;7.258;2022-08-21T10:06:53;26.60;79.10
23137;DHT22;11737;50.558;7.258;2022-08-21T10:09:21;26.70;73.70
23137;DHT22;11737;50.558;7.258;2022-08-21T10:12:21;26.60;76.10
23137;DHT22;11737;50.558;7.258;2022-08-21T10:14:57;26.60;78.10
23137;DHT22;11737;50.558;7.258;2022-08-21T10:18:02;26.60;78.90
23137;DHT22;11737;50.558;7.258;2022-08-21T10:20:46;26.70;73.80
23137;DHT22;11737;50.558;7.258;2022-08-21T10:26:07;27.00;71.80
23137;DHT22;11737;50.558;7.258;2022-08-21T10:28:51;27.00;74.60
23137;DHT22;11737;50.558;7.258;2022-08-21T10:31:37;27.10;70.20
23137;DHT22;11737;50.558;7.258;2022-08-21T10:34:19;27.10;74.90
23137;DHT22;11737;50.558;7.258;2022-08-21T10:45:54;27.50;71.20
23137;DHT22;11737;50.558;7.258;2022-08-21T10:48:27;27.60;72.40
23137;DHT22;11737;50.558;7.258;2022-08-21T10:51:06;27.70;73.30
23137;DHT22;11737;50.558;7.258;2022-08-21T10:53:49;27.80;70.00
23137;DHT22;11737;50.558;7.258;2022-08-21T10:56:20;27.90;66.80
23137;DHT22;11737;50.558;7.258;2022-08-21T10:59:07;28.00;68.80
23137;DHT22;11737;50.558;7.258;2022-08-21T11:04:56;28.20;69.60
23137;DHT22;11737;50.558;7.258;2022-08-21T11:07:11;28.40;68.50
23137;DHT22;11737;50.558;7.258;2022-08-21T11:09:33;28.60;67.20
23137;DHT22;11737;50.558;7.258;2022-08-21T11:12:06;28.60;67.70
23137;DHT22;11737;50.558;7.258;2022-08-21T11:15:00;28.60;65.80
23137;DHT22;11737;50.558;7.258;2022-08-21T11:17:42;28.60;63.30
23137;DHT22;11737;50.558;7.258;2022-08-21T11:20:10;28.60;64.10
23137;DHT22;11737;50.558;7.258;2022-08-21T11:23:14;28.70;62.80
23137;DHT22;11737;50.558;7.258;2022-08-21T11:25:42;28.80;62.80
23137;DHT22;11737;50.558;7.258;2022-08-21T11:28:20;28.90;65.10
23137;DHT22;11737;50.558;7.258;2022-08-21T11:31:34;28.90;66.90
23137;DHT22;11737;50.558;7.258;2022-08-21T11:33:34;28.90;66.00
23137;DHT22;11737;50.558;7.258;2022-08-21T11:39:00;28.90;65.30
23137;DHT22;11737;50.558;7.258;2022-08-21T11:41:42;28.90;64.20
23137;DHT22;11737;50.558;7.258;2022-08-21T11:44:23;28.90;63.90
23137;DHT22;11737;50.558;7.258;2022-08-21T11:47:12;29.00;61.20
23137;DHT22;11737;50.558;7.258;2022-08-21T11:52:29;29.00;61.80
23137;DHT22;11737;50.558;7.258;2022-08-21T11:55:16;29.10;62.60
23137;DHT22;11737;50.558;7.258;2022-08-21T11:57:55;29.30;64.40
23137;DHT22;11737;50.558;7.258;2022-08-21T12:00:39;29.30;61.10
23137;DHT22;11737;50.558;7.258;2022-08-21T12:03:26;29.40;62.70
23137;DHT22;11737;50.558;7.258;2022-08-21T12:05:53;29.40;60.90
23137;DHT22;11737;50.558;7.258;2022-08-21T12:19:08;29.70;61.70
23137;DHT22;11737;50.558;7.258;2022-08-21T12:21:51;29.70;63.00
23137;DHT22;11737;50.558;7.258;2022-08-21T12:24:30;29.80;64.10
23137;DHT22;11737;50.558;7.258;2022-08-21T12:26:52;29.90;62.90
23137;DHT22;11737;50.558;7.258;2022-08-21T12:29:33;30.00;61.80
23137;DHT22;11737;50.558;7.258;2022-08-21T12:37:36;30.40;58.50
23137;DHT22;11737;50.558;7.258;2022-08-21T12:40:04;30.40;59.30
23137;DHT22;11737;50.558;7.258;2022-08-21T12:42:41;30.50;59.40
23137;DHT22;11737;50.558;7.258;2022-08-21T12:45:44;30.60;58.00
23137;DHT22;11737;50.558;7.258;2022-08-21T12:48:04;30.80;59.70
23137;DHT22;11737;50.558;7.258;2022-08-21T12:51:05;30.90;58.40
23137;DHT22;11737;50.558;7.258;2022-08-21T12:53:07;31.00;58.40
23137;DHT22;11737;50.558;7.258;2022-08-21T12:55:32;31.10;58.20
23137;DHT22;11737;50.558;7.258;2022-08-21T12:58:01;31.20;56.40
23137;DHT22;11737;50.558;7.258;2022-08-21T13:00:29;31.30;57.90
23137;DHT22;11737;50.558;7.258;2022-08-21T13:02:57;31.40;56.80
23137;DHT22;11737;50.558;7.258;2022-08-21T13:05:34;31.40;55.10
23137;DHT22;11737;50.558;7.258;2022-08-21T13:08:04;31.50;53.80
23137;DHT22;11737;50.558;7.258;2022-08-21T13:10:33;31.60;55.90
23137;DHT22;11737;50.558;7.258;2022-08-21T13:13:03;31.70;55.70
23137;DHT22;11737;50.558;7.258;2022-08-21T13:15:35;31.70;55.90
23137;DHT22;11737;50.558;7.258;2022-08-21T13:18:05;31.50;53.50
23137;DHT22;11737;50.558;7.258;2022-08-21T13:20:35;31.40;54.60
23137;DHT22;11737;50.558;7.258;2022-08-21T13:23:07;31.20;54.10
23137;DHT22;11737;50.558;7.258;2022-08-21T13:25:36;31.00;52.30
23137;DHT22;11737;50.558;7.258;2022-08-21T13:28:12;30.90;55.10
23137;DHT22;11737;50.558;7.258;2022-08-21T13:30:54;30.90;55.50
23137;DHT22;11737;50.558;7.258;2022-08-21T13:33:20;31.10;53.70
23137;DHT22;11737;50.558;7.258;2022-08-21T13:36:03;31.30;54.20
23137;DHT22;11737;50.558;7.258;2022-08-21T13:38:33;31.50;54.70
23137;DHT22;11737;50.558;7.258;2022-08-21T13:41:20;31.70;50.00
23137;DHT22;11737;50.558;7.258;2022-08-21T13:43:44;31.80;54.10
23137;DHT22;11737;50.558;7.258;2022-08-21T13:46:10;31.90;54.90
23137;DHT22;11737;50.558;7.258;2022-08-21T13:48:38;32.10;53.90
23137;DHT22;11737;50.558;7.258;2022-08-21T13:51:06;32.00;54.00
23137;DHT22;11737;50.558;7.258;2022-08-21T13:56:26;31.90;51.90
23137;DHT22;11737;50.558;7.258;2022-08-21T13:58:53;31.90;52.00
23137;DHT22;11737;50.558;7.258;2022-08-21T14:01:36;31.80;52.90
23137;DHT22;11737;50.558;7.258;2022-08-21T14:04:25;31.70;52.90
23137;DHT22;11737;50.558;7.258;2022-08-21T14:06:38;31.60;53.90
23137;DHT22;11737;50.558;7.258;2022-08-21T14:09:11;31.50;54.60
23137;DHT22;11737;50.558;7.258;2022-08-21T14:11:39;31.50;54.30
23137;DHT22;11737;50.558;7.258;2022-08-21T14:14:31;31.60;53.00
23137;DHT22;11737;50.558;7.258;2022-08-21T14:17:00;31.70;49.20
23137;DHT22;11737;50.558;7.258;2022-08-21T14:19:43;31.70;53.60
23137;DHT22;11737;50.558;7.258;2022-08-21T14:25:28;31.90;54.40
23137;DHT22;11737;50.558;7.258;2022-08-21T14:28:07;32.20;53.10
23137;DHT22;11737;50.558;7.258;2022-08-21T14:30:38;32.60;52.00
23137;DHT22;11737;50.558;7.258;2022-08-21T14:33:13;32.80;51.70
23137;DHT22;11737;50.558;7.258;2022-08-21T14:35:38;33.00;50.00
23137;DHT22;11737;50.558;7.258;2022-08-21T14:38:18;33.00;51.30
23137;DHT22;11737;50.558;7.258;2022-08-21T14:40:48;33.20;48.50
23137;DHT22;11737;50.558;7.258;2022-08-21T14:43:17;33.50;48.80
23137;DHT22;11737;50.558;7.258;2022-08-21T14:45:46;33.20;46.60
23137;DHT22;11737;50.558;7.258;2022-08-21T14:48:14;33.00;47.90
23137;DHT22;11737;50.558;7.258;2022-08-21T14:50:41;32.70;49.60
23137;DHT22;11737;50.558;7.258;2022-08-21T14:53:09;32.40;46.10
23137;DHT22;11737;50.558;7.258;2022-08-21T14:55:37;32.10;50.90
23137;DHT22;11737;50.558;7.258;2022-08-21T14:58:24;31.80;50.60
23137;DHT22;11737;50.558;7.258;2022-08-21T15:00:54;31.70;50.20
23137;DHT22;11737;50.558;7.258;2022-08-21T15:03:22;31.70;50.80
23137;DHT22;11737;50.558;7.258;2022-08-21T15:05:50;31.70;49.70
23137;DHT22;11737;50.558;7.258;2022-08-21T15:08:18;31.60;50.80
23137;DHT22;11737;50.558;7.258;2022-08-21T15:10:46;31.60;50.50
23137;DHT22;11737;50.558;7.258;2022-08-21T15:13:15;31.50;50.90
23137;DHT22;11737;50.558;7.258;2022-08-21T15:15:44;31.60;51.90
23137;DHT22;11737;50.558;7.258;2022-08-21T15:18:13;31.60;50.70
23137;DHT22;11737;50.558;7.258;2022-08-21T15:20:40;31.50;50.80
23137;DHT22;11737;50.558;7.258;2022-08-21T15:23:08;31.30;50.00
23137;DHT22;11737;50.558;7.258;2022-08-21T15:25:36;31.20;49.90
23137;DHT22;11737;50.558;7.258;2022-08-21T15:28:04;31.20;50.90
23137;DHT22;11737;50.558;7.258;2022-08-21T15:30:32;31.00;50.50
23137;DHT22;11737;50.558;7.258;2022-08-21T15:33:00;30.80;51.20
23137;DHT22;11737;50.558;7.258;2022-08-21T15:35:27;30.50;48.30
23137;DHT22;11737;50.558;7.258;2022-08-21T15:37:55;30.30;48.90
23137;DHT22;11737;50.558;7.258;2022-08-21T15:40:23;30.20;51.20
23137;DHT22;11737;50.558;7.258;2022-08-21T15:42:55;30.10;49.20
23137;DHT22;11737;50.558;7.258;2022-08-21T15:45:21;30.00;49.70
23137;DHT22;11737;50.558;7.258;2022-08-21T15:47:49;29.80;50.90
23137;DHT22;11737;50.558;7.258;2022-08-21T15:50:17;29.70;52.70
23137;DHT22;11737;50.558;7.258;2022-08-21T15:52:45;29.80;53.50
23137;DHT22;11737;50.558;7.258;2022-08-21T15:55:13;29.80;50.00
23137;DHT22;11737;50.558;7.258;2022-08-21T15:57:46;29.70;51.10
23137;DHT22;11737;50.558;7.258;2022-08-21T16:00:22;29.60;50.70
23137;DHT22;11737;50.558;7.258;2022-08-21T16:02:53;29.50;50.20
23137;DHT22;11737;50.558;7.258;2022-08-21T16:05:22;29.60;51.80
23137;DHT22;11737;50.558;7.258;2022-08-21T16:07:51;29.80;51.10
23137;DHT22;11737;50.558;7.258;2022-08-21T16:10:20;30.10;51.70
23137;DHT22;11737;50.558;7.258;2022-08-21T16:12:54;30.30;51.50
23137;DHT22;11737;50.558;7.258;2022-08-21T16:15:22;30.30;52.80
23137;DHT22;11737;50.558;7.258;2022-08-21T16:17:51;30.10;51.20
23137;DHT22;11737;50.558;7.258;2022-08-21T16:20:23;30.00;55.10
23137;DHT22;11737;50.558;7.258;2022-08-21T16:22:52;29.70;54.60
23137;DHT22;11737;50.558;7.258;2022-08-21T16:25:21;29.60;54.90
23137;DHT22;11737;50.558;7.258;2022-08-21T16:27:55;29.50;54.70
23137;DHT22;11737;50.558;7.258;2022-08-21T16:30:19;29.40;53.10
23137;DHT22;11737;50.558;7.258;2022-08-21T16:32:47;29.30;54.10
23137;DHT22;11737;50.558;7.258;2022-08-21T16:35:17;29.10;53.00
23137;DHT22;11737;50.558;7.258;2022-08-21T16:37:46;28.90;55.50
23137;DHT22;11737;50.558;7.258;2022-08-21T16:40:14;28.80;54.00
23137;DHT22;11737;50.558;7.258;2022-08-21T16:42:42;28.60;54.40
23137;DHT22;11737;50.558;7.258;2022-08-21T16:45:14;28.50;54.90
23137;DHT22;11737;50.558;7.258;2022-08-21T16:47:42;28.50;55.20
23137;DHT22;11737;50.558;7.258;2022-08-21T16:50:16;28.50;55.30
23137;DHT22;11737;50.558;7.258;2022-08-21T16:53:03;28.40;57.70
23137;DHT22;11737;50.558;7.258;2022-08-21T16:55:34;28.30;56.20